sensor_id;sensor_type;location;lat;lon;timestamp;P1;durP1;ratioP1;P2;durP2;ratioP2
47960;SDS011;33721;48.852;9.936;2023-07-24T00:01:08;18.88;;;7.65;;
47960;SDS011;33721;48.852;9.936;2023-07-24T00:03:34;15.75;;;7.75;;
47960;SDS011;33721;48.852;9.936;2023-07-24T00:06:01;15.68;;;7.85;;
47960;SDS011;33721;48.852;9.936;2023-07-24T00:08:27;22.92;;;8.20;;
47960;SDS011;33721;48.852;9.936;2023-07-24T00:10:53;24.40;;;8.70;;
47960;SDS011;33721;48.852;9.936;2023-07-24T00:13:19;22.05;;;8.90;;
47960;SDS011;33721;48.852;9.936;2023-07-24T00:15:44;18.10;;;8.10;;
47960;SDS011;33721;48.852;9.936;2023-07-24T00:18:10;20.23;;;8.80;;
47960;SDS011;33721;48.852;9.936;2023-07-24T00:20:36;18.38;;;8.15;;
47960;SDS011;33721;48.852;9.936;2023-07-24T00:23:01;15.13;;;7.93;;
47960;SDS011;33721;48.852;9.936;2023-07-24T00:25:27;20.55;;;8.52;;
47960;SDS011;33721;48.852;9.936;2023-07-24T00:27:52;20.63;;;9.18;;
47960;SDS011;33721;48.852;9.936;2023-07-24T00:30:18;19.05;;;8.57;;
47960;SDS011;33721;48.852;9.936;2023-07-24T00:32:44;18.88;;;8.00;;
47960;SDS011;33721;48.852;9.936;2023-07-24T00:35:10;19.30;;;7.93;;
47960;SDS011;33721;48.852;9.936;2023-07-24T00:37:35;20.85;;;8.13;;
47960;SDS011;33721;48.852;9.936;2023-07-24T00:40:02;17.20;;;8.60;;
47960;SDS011;33721;48.852;9.936;2023-07-24T00:42:28;20.27;;;8.70;;
47960;SDS011;33721;48.852;9.936;2023-07-24T00:44:53;20.65;;;9.18;;
47960;SDS011;33721;48.852;9.936;2023-07-24T00:47:19;21.92;;;8.98;;
47960;SDS011;33721;48.852;9.936;2023-07-24T00:49:44;21.95;;;9.25;;
47960;SDS011;33721;48.852;9.936;2023-07-24T00:52:11;19.95;;;8.68;;
47960;SDS011;33721;48.852;9.936;2023-07-24T00:54:37;19.08;;;8.43;;
47960;SDS011;33721;48.852;9.936;2023-07-24T00:57:03;20.45;;;8.90;;
47960;SDS011;33721;48.852;9.936;2023-07-24T00:59:30;17.73;;;8.38;;
47960;SDS011;33721;48.852;9.936;2023-07-24T01:01:57;20.30;;;8.43;;
47960;SDS011;33721;48.852;9.936;2023-07-24T01:04:23;19.40;;;8.43;;
47960;SDS011;33721;48.852;9.936;2023-07-24T01:06:48;16.52;;;8.32;;
47960;SDS011;33721;48.852;9.936;2023-07-24T01:09:14;18.60;;;8.52;;
47960;SDS011;33721;48.852;9.936;2023-07-24T01:11:47;19.23;;;9.18;;
47960;SDS011;33721;48.852;9.936;2023-07-24T01:14:44;18.23;;;8.57;;
47960;SDS011;33721;48.852;9.936;2023-07-24T01:17:14;19.80;;;8.68;;
47960;SDS011;33721;48.852;9.936;2023-07-24T01:19:47;18.57;;;8.70;;
47960;SDS011;33721;48.852;9.936;2023-07-24T01:25:03;16.98;;;8.40;;
47960;SDS011;33721;48.852;9.936;2023-07-24T01:27:40;20.35;;;9.13;;
47960;SDS011;33721;48.852;9.936;2023-07-24T01:30:09;17.90;;;8.23;;
47960;SDS011;33721;48.852;9.936;2023-07-24T01:32:36;17.58;;;8.32;;
47960;SDS011;33721;48.852;9.936;2023-07-24T01:35:02;25.75;;;8.27;;
47960;SDS011;33721;48.852;9.936;2023-07-24T01:37:28;17.52;;;8.35;;
47960;SDS011;33721;48.852;9.936;2023-07-24T01:39:55;18.25;;;8.05;;
47960;SDS011;33721;48.852;9.936;2023-07-24T01:42:22;19.55;;;8.43;;
47960;SDS011;33721;48.852;9.936;2023-07-24T01:44:53;17.80;;;8.75;;
47960;SDS011;33721;48.852;9.936;2023-07-24T01:47:19;18.67;;;8.45;;
47960;SDS011;33721;48.852;9.936;2023-07-24T01:49:45;19.45;;;8.23;;
47960;SDS011;33721;48.852;9.936;2023-07-24T01:52:11;18.85;;;8.55;;
47960;SDS011;33721;48.852;9.936;2023-07-24T01:54:36;18.48;;;8.93;;
47960;SDS011;33721;48.852;9.936;2023-07-24T01:57:02;18.35;;;8.15;;
47960;SDS011;33721;48.852;9.936;2023-07-24T01:59:28;21.25;;;8.88;;
47960;SDS011;33721;48.852;9.936;2023-07-24T02:01:53;16.23;;;7.82;;
47960;SDS011;33721;48.852;9.936;2023-07-24T02:04:19;18.42;;;8.45;;
47960;SDS011;33721;48.852;9.936;2023-07-24T02:06:50;18.70;;;9.32;;
47960;SDS011;33721;48.852;9.936;2023-07-24T02:09:19;17.75;;;8.40;;
47960;SDS011;33721;48.852;9.936;2023-07-24T02:11:45;17.23;;;8.27;;
47960;SDS011;33721;48.852;9.936;2023-07-24T02:14:11;17.90;;;8.85;;
47960;SDS011;33721;48.852;9.936;2023-07-24T02:16:38;19.02;;;9.13;;
47960;SDS011;33721;48.852;9.936;2023-07-24T02:19:04;18.02;;;8.05;;
47960;SDS011;33721;48.852;9.936;2023-07-24T02:21:30;18.02;;;8.00;;
47960;SDS011;33721;48.852;9.936;2023-07-24T02:23:55;18.92;;;8.50;;
47960;SDS011;33721;48.852;9.936;2023-07-24T02:26:21;16.83;;;8.60;;
47960;SDS011;33721;48.852;9.936;2023-07-24T02:28:47;18.23;;;8.85;;
47960;SDS011;33721;48.852;9.936;2023-07-24T02:31:12;16.38;;;7.90;;
47960;SDS011;33721;48.852;9.936;2023-07-24T02:33:38;19.42;;;9.25;;
47960;SDS011;33721;48.852;9.936;2023-07-24T02:36:03;18.08;;;8.63;;
47960;SDS011;33721;48.852;9.936;2023-07-24T02:38:29;19.10;;;9.18;;
47960;SDS011;33721;48.852;9.936;2023-07-24T02:40:55;17.15;;;8.43;;
47960;SDS011;33721;48.852;9.936;2023-07-24T02:43:20;19.83;;;8.35;;
47960;SDS011;33721;48.852;9.936;2023-07-24T02:45:46;17.35;;;8.20;;
47960;SDS011;33721;48.852;9.936;2023-07-24T02:48:11;20.10;;;9.00;;
47960;SDS011;33721;48.852;9.936;2023-07-24T02:50:37;17.27;;;8.57;;
47960;SDS011;33721;48.852;9.936;2023-07-24T02:53:03;17.85;;;8.38;;
47960;SDS011;33721;48.852;9.936;2023-07-24T02:55:29;16.98;;;7.85;;
47960;SDS011;33721;48.852;9.936;2023-07-24T02:57:55;18.67;;;8.20;;
47960;SDS011;33721;48.852;9.936;2023-07-24T03:00:20;19.08;;;8.15;;
47960;SDS011;33721;48.852;9.936;2023-07-24T03:02:46;16.98;;;8.25;;
47960;SDS011;33721;48.852;9.936;2023-07-24T03:05:12;15.13;;;7.57;;
47960;SDS011;33721;48.852;9.936;2023-07-24T03:07:37;17.48;;;8.48;;
47960;SDS011;33721;48.852;9.936;2023-07-24T03:10:03;18.02;;;8.52;;
47960;SDS011;33721;48.852;9.936;2023-07-24T03:12:29;17.63;;;8.02;;
47960;SDS011;33721;48.852;9.936;2023-07-24T03:14:54;14.75;;;7.78;;
47960;SDS011;33721;48.852;9.936;2023-07-24T03:17:20;19.30;;;8.07;;
47960;SDS011;33721;48.852;9.936;2023-07-24T03:19:48;18.95;;;8.30;;
47960;SDS011;33721;48.852;9.936;2023-07-24T03:22:14;17.92;;;8.48;;
47960;SDS011;33721;48.852;9.936;2023-07-24T03:24:40;18.17;;;8.57;;
47960;SDS011;33721;48.852;9.936;2023-07-24T03:27:05;18.25;;;8.07;;
47960;SDS011;33721;48.852;9.936;2023-07-24T03:29:31;21.13;;;8.07;;
47960;SDS011;33721;48.852;9.936;2023-07-24T03:31:57;19.73;;;8.90;;
47960;SDS011;33721;48.852;9.936;2023-07-24T03:34:23;17.25;;;8.35;;
47960;SDS011;33721;48.852;9.936;2023-07-24T03:36:48;16.95;;;7.57;;
47960;SDS011;33721;48.852;9.936;2023-07-24T03:39:14;19.02;;;8.93;;
47960;SDS011;33721;48.852;9.936;2023-07-24T03:41:41;21.17;;;8.90;;
47960;SDS011;33721;48.852;9.936;2023-07-24T03:44:07;20.80;;;8.48;;
47960;SDS011;33721;48.852;9.936;2023-07-24T03:46:32;14.40;;;7.53;;
47960;SDS011;33721;48.852;9.936;2023-07-24T03:48:58;17.50;;;8.38;;
47960;SDS011;33721;48.852;9.936;2023-07-24T03:51:24;21.67;;;8.75;;
47960;SDS011;33721;48.852;9.936;2023-07-24T03:53:50;18.02;;;7.63;;
47960;SDS011;33721;48.852;9.936;2023-07-24T03:56:15;17.55;;;8.10;;
47960;SDS011;33721;48.852;9.936;2023-07-24T03:58:41;17.88;;;7.75;;
47960;SDS011;33721;48.852;9.936;2023-07-24T04:01:10;16.60;;;8.30;;
47960;SDS011;33721;48.852;9.936;2023-07-24T04:03:35;18.15;;;8.23;;
47960;SDS011;33721;48.852;9.936;2023-07-24T04:06:01;16.40;;;7.53;;
47960;SDS011;33721;48.852;9.936;2023-07-24T04:08:27;18.08;;;8.52;;
47960;SDS011;33721;48.852;9.936;2023-07-24T04:10:52;18.15;;;8.10;;
47960;SDS011;33721;48.852;9.936;2023-07-24T04:13:21;17.05;;;8.13;;
47960;SDS011;33721;48.852;9.936;2023-07-24T04:15:47;17.75;;;7.80;;
47960;SDS011;33721;48.852;9.936;2023-07-24T04:18:12;17.88;;;7.82;;
47960;SDS011;33721;48.852;9.936;2023-07-24T04:20:38;18.38;;;8.68;;
47960;SDS011;33721;48.852;9.936;2023-07-24T04:23:03;18.15;;;8.07;;
47960;SDS011;33721;48.852;9.936;2023-07-24T04:25:29;22.17;;;8.60;;
47960;SDS011;33721;48.852;9.936;2023-07-24T04:27:55;23.75;;;8.30;;
47960;SDS011;33721;48.852;9.936;2023-07-24T04:30:20;18.63;;;8.20;;
47960;SDS011;33721;48.852;9.936;2023-07-24T04:32:46;21.63;;;8.27;;
47960;SDS011;33721;48.852;9.936;2023-07-24T04:35:11;16.88;;;7.90;;
47960;SDS011;33721;48.852;9.936;2023-07-24T04:37:37;17.02;;;7.88;;
47960;SDS011;33721;48.852;9.936;2023-07-24T04:40:03;19.60;;;8.63;;
47960;SDS011;33721;48.852;9.936;2023-07-24T04:42:30;16.05;;;7.07;;
47960;SDS011;33721;48.852;9.936;2023-07-24T04:44:56;16.25;;;7.45;;
47960;SDS011;33721;48.852;9.936;2023-07-24T04:47:21;14.50;;;7.20;;
47960;SDS011;33721;48.852;9.936;2023-07-24T04:49:47;16.90;;;7.55;;
47960;SDS011;33721;48.852;9.936;2023-07-24T04:52:13;14.10;;;7.10;;
47960;SDS011;33721;48.852;9.936;2023-07-24T04:54:38;17.27;;;7.38;;
47960;SDS011;33721;48.852;9.936;2023-07-24T04:57:04;19.65;;;8.43;;
47960;SDS011;33721;48.852;9.936;2023-07-24T04:59:30;18.00;;;8.15;;
47960;SDS011;33721;48.852;9.936;2023-07-24T05:01:55;14.65;;;7.75;;
47960;SDS011;33721;48.852;9.936;2023-07-24T05:04:21;17.05;;;8.15;;
47960;SDS011;33721;48.852;9.936;2023-07-24T05:06:47;16.33;;;7.43;;
47960;SDS011;33721;48.852;9.936;2023-07-24T05:09:12;16.02;;;7.60;;
47960;SDS011;33721;48.852;9.936;2023-07-24T05:11:39;24.48;;;7.20;;
47960;SDS011;33721;48.852;9.936;2023-07-24T05:14:05;14.85;;;7.60;;
47960;SDS011;33721;48.852;9.936;2023-07-24T05:16:30;16.20;;;7.93;;
47960;SDS011;33721;48.852;9.936;2023-07-24T05:18:56;17.00;;;8.07;;
47960;SDS011;33721;48.852;9.936;2023-07-24T05:21:22;16.70;;;8.45;;
47960;SDS011;33721;48.852;9.936;2023-07-24T05:23:47;19.77;;;8.38;;
47960;SDS011;33721;48.852;9.936;2023-07-24T05:26:13;16.25;;;7.63;;
47960;SDS011;33721;48.852;9.936;2023-07-24T05:28:39;14.10;;;7.10;;
47960;SDS011;33721;48.852;9.936;2023-07-24T05:31:04;18.48;;;8.07;;
47960;SDS011;33721;48.852;9.936;2023-07-24T05:33:30;14.38;;;7.47;;
47960;SDS011;33721;48.852;9.936;2023-07-24T05:35:57;17.25;;;7.85;;
47960;SDS011;33721;48.852;9.936;2023-07-24T05:38:27;17.58;;;7.30;;
47960;SDS011;33721;48.852;9.936;2023-07-24T05:40:59;16.15;;;8.00;;
47960;SDS011;33721;48.852;9.936;2023-07-24T05:43:28;15.98;;;7.95;;
47960;SDS011;33721;48.852;9.936;2023-07-24T05:45:54;20.67;;;8.52;;
47960;SDS011;33721;48.852;9.936;2023-07-24T05:48:21;23.70;;;8.32;;
47960;SDS011;33721;48.852;9.936;2023-07-24T05:50:47;18.90;;;8.18;;
47960;SDS011;33721;48.852;9.936;2023-07-24T05:53:13;16.10;;;8.57;;
47960;SDS011;33721;48.852;9.936;2023-07-24T05:55:39;13.95;;;7.57;;
47960;SDS011;33721;48.852;9.936;2023-07-24T05:58:05;17.02;;;8.20;;
47960;SDS011;33721;48.852;9.936;2023-07-24T06:00:30;15.15;;;7.88;;
47960;SDS011;33721;48.852;9.936;2023-07-24T06:02:56;20.63;;;8.20;;
47960;SDS011;33721;48.852;9.936;2023-07-24T06:05:22;19.77;;;8.55;;
47960;SDS011;33721;48.852;9.936;2023-07-24T06:07:47;18.25;;;8.07;;
47960;SDS011;33721;48.852;9.936;2023-07-24T06:10:13;21.95;;;8.00;;
47960;SDS011;33721;48.852;9.936;2023-07-24T06:12:39;18.00;;;8.10;;
47960;SDS011;33721;48.852;9.936;2023-07-24T06:15:05;15.43;;;7.85;;
47960;SDS011;33721;48.852;9.936;2023-07-24T06:17:31;20.83;;;8.75;;
47960;SDS011;33721;48.852;9.936;2023-07-24T06:19:57;18.73;;;9.07;;
47960;SDS011;33721;48.852;9.936;2023-07-24T06:22:23;16.90;;;7.97;;
47960;SDS011;33721;48.852;9.936;2023-07-24T06:24:48;25.08;;;9.05;;
47960;SDS011;33721;48.852;9.936;2023-07-24T06:27:14;21.05;;;9.40;;
47960;SDS011;33721;48.852;9.936;2023-07-24T06:29:40;16.20;;;8.77;;
47960;SDS011;33721;48.852;9.936;2023-07-24T06:32:06;19.30;;;9.27;;
47960;SDS011;33721;48.852;9.936;2023-07-24T06:34:32;21.13;;;8.68;;
47960;SDS011;33721;48.852;9.936;2023-07-24T06:36:58;21.98;;;9.25;;
47960;SDS011;33721;48.852;9.936;2023-07-24T06:39:24;16.70;;;9.02;;
47960;SDS011;33721;48.852;9.936;2023-07-24T06:41:52;20.63;;;9.30;;
47960;SDS011;33721;48.852;9.936;2023-07-24T06:44:19;19.55;;;8.38;;
47960;SDS011;33721;48.852;9.936;2023-07-24T06:46:45;17.10;;;9.23;;
47960;SDS011;33721;48.852;9.936;2023-07-24T06:49:10;18.35;;;8.98;;
47960;SDS011;33721;48.852;9.936;2023-07-24T06:51:36;22.50;;;9.00;;
47960;SDS011;33721;48.852;9.936;2023-07-24T06:54:03;24.13;;;9.48;;
47960;SDS011;33721;48.852;9.936;2023-07-24T06:56:29;25.90;;;9.38;;
47960;SDS011;33721;48.852;9.936;2023-07-24T06:58:55;18.08;;;9.63;;
47960;SDS011;33721;48.852;9.936;2023-07-24T07:01:21;19.98;;;9.25;;
47960;SDS011;33721;48.852;9.936;2023-07-24T07:03:47;27.42;;;9.68;;
47960;SDS011;33721;48.852;9.936;2023-07-24T07:06:12;20.30;;;9.18;;
47960;SDS011;33721;48.852;9.936;2023-07-24T07:08:38;16.48;;;8.65;;
47960;SDS011;33721;48.852;9.936;2023-07-24T07:11:03;18.58;;;8.95;;
47960;SDS011;33721;48.852;9.936;2023-07-24T07:13:29;17.92;;;8.98;;
47960;SDS011;33721;48.852;9.936;2023-07-24T07:15:55;18.27;;;8.15;;
47960;SDS011;33721;48.852;9.936;2023-07-24T07:18:20;18.70;;;9.30;;
47960;SDS011;33721;48.852;9.936;2023-07-24T07:20:47;18.67;;;9.02;;
47960;SDS011;33721;48.852;9.936;2023-07-24T07:23:14;20.60;;;9.35;;
47960;SDS011;33721;48.852;9.936;2023-07-24T07:25:39;20.15;;;9.98;;
47960;SDS011;33721;48.852;9.936;2023-07-24T07:28:05;19.25;;;9.13;;
47960;SDS011;33721;48.852;9.936;2023-07-24T07:30:31;20.48;;;9.80;;
47960;SDS011;33721;48.852;9.936;2023-07-24T07:32:56;19.02;;;9.10;;
47960;SDS011;33721;48.852;9.936;2023-07-24T07:35:22;23.80;;;9.68;;
47960;SDS011;33721;48.852;9.936;2023-07-24T07:37:48;20.98;;;9.45;;
47960;SDS011;33721;48.852;9.936;2023-07-24T07:40:13;23.27;;;8.98;;
47960;SDS011;33721;48.852;9.936;2023-07-24T07:42:39;20.35;;;8.73;;
47960;SDS011;33721;48.852;9.936;2023-07-24T07:45:05;20.58;;;9.52;;
47960;SDS011;33721;48.852;9.936;2023-07-24T07:47:31;21.17;;;9.27;;
47960;SDS011;33721;48.852;9.936;2023-07-24T07:49:56;20.80;;;9.02;;
47960;SDS011;33721;48.852;9.936;2023-07-24T07:52:22;19.48;;;9.55;;
47960;SDS011;33721;48.852;9.936;2023-07-24T07:54:48;20.38;;;9.55;;
47960;SDS011;33721;48.852;9.936;2023-07-24T07:57:14;19.27;;;9.77;;
47960;SDS011;33721;48.852;9.936;2023-07-24T07:59:40;18.92;;;9.57;;
47960;SDS011;33721;48.852;9.936;2023-07-24T08:02:06;18.38;;;9.30;;
47960;SDS011;33721;48.852;9.936;2023-07-24T08:04:32;17.40;;;9.00;;
47960;SDS011;33721;48.852;9.936;2023-07-24T08:06:57;18.75;;;9.38;;
47960;SDS011;33721;48.852;9.936;2023-07-24T08:09:23;20.55;;;9.80;;
47960;SDS011;33721;48.852;9.936;2023-07-24T08:11:50;20.55;;;10.23;;
47960;SDS011;33721;48.852;9.936;2023-07-24T08:14:19;27.35;;;9.95;;
47960;SDS011;33721;48.852;9.936;2023-07-24T08:16:47;21.95;;;9.63;;
47960;SDS011;33721;48.852;9.936;2023-07-24T08:19:13;19.48;;;9.30;;
47960;SDS011;33721;48.852;9.936;2023-07-24T08:21:39;16.80;;;9.70;;
47960;SDS011;33721;48.852;9.936;2023-07-24T08:24:05;25.90;;;9.32;;
47960;SDS011;33721;48.852;9.936;2023-07-24T08:26:31;17.83;;;9.27;;
47960;SDS011;33721;48.852;9.936;2023-07-24T08:28:57;21.65;;;9.98;;
47960;SDS011;33721;48.852;9.936;2023-07-24T08:31:23;20.38;;;9.88;;
47960;SDS011;33721;48.852;9.936;2023-07-24T08:33:49;17.17;;;8.93;;
47960;SDS011;33721;48.852;9.936;2023-07-24T08:36:15;20.75;;;9.40;;
47960;SDS011;33721;48.852;9.936;2023-07-24T08:38:43;20.63;;;9.80;;
47960;SDS011;33721;48.852;9.936;2023-07-24T08:41:15;15.90;;;8.70;;
47960;SDS011;33721;48.852;9.936;2023-07-24T08:43:41;18.45;;;9.07;;
47960;SDS011;33721;48.852;9.936;2023-07-24T08:46:08;21.73;;;9.57;;
47960;SDS011;33721;48.852;9.936;2023-07-24T08:48:35;18.52;;;8.50;;
47960;SDS011;33721;48.852;9.936;2023-07-24T08:51:06;21.27;;;9.13;;
47960;SDS011;33721;48.852;9.936;2023-07-24T08:53:36;18.13;;;8.70;;
47960;SDS011;33721;48.852;9.936;2023-07-24T08:56:07;20.30;;;9.57;;
47960;SDS011;33721;48.852;9.936;2023-07-24T08:58:34;19.55;;;8.70;;
47960;SDS011;33721;48.852;9.936;2023-07-24T09:01:01;19.88;;;8.88;;
47960;SDS011;33721;48.852;9.936;2023-07-24T09:03:28;18.50;;;9.15;;
47960;SDS011;33721;48.852;9.936;2023-07-24T09:05:57;18.60;;;9.38;;
47960;SDS011;33721;48.852;9.936;2023-07-24T09:08:32;21.48;;;9.38;;
47960;SDS011;33721;48.852;9.936;2023-07-24T09:10:59;17.83;;;8.60;;
47960;SDS011;33721;48.852;9.936;2023-07-24T09:13:25;19.30;;;9.45;;
47960;SDS011;33721;48.852;9.936;2023-07-24T09:15:52;19.98;;;8.50;;
47960;SDS011;33721;48.852;9.936;2023-07-24T09:18:18;16.48;;;8.52;;
47960;SDS011;33721;48.852;9.936;2023-07-24T09:20:44;16.88;;;8.73;;
47960;SDS011;33721;48.852;9.936;2023-07-24T09:23:11;18.60;;;8.70;;
47960;SDS011;33721;48.852;9.936;2023-07-24T09:25:38;15.50;;;8.43;;
47960;SDS011;33721;48.852;9.936;2023-07-24T09:28:12;19.80;;;8.90;;
47960;SDS011;33721;48.852;9.936;2023-07-24T09:30:39;14.38;;;7.65;;
47960;SDS011;33721;48.852;9.936;2023-07-24T09:33:06;15.85;;;7.57;;
47960;SDS011;33721;48.852;9.936;2023-07-24T09:35:33;22.30;;;8.15;;
47960;SDS011;33721;48.852;9.936;2023-07-24T09:38:09;15.32;;;7.47;;
47960;SDS011;33721;48.852;9.936;2023-07-24T09:40:42;16.15;;;7.88;;
47960;SDS011;33721;48.852;9.936;2023-07-24T09:43:20;20.13;;;8.20;;
47960;SDS011;33721;48.852;9.936;2023-07-24T09:45:47;14.82;;;7.65;;
47960;SDS011;33721;48.852;9.936;2023-07-24T09:48:15;17.70;;;7.63;;
47960;SDS011;33721;48.852;9.936;2023-07-24T09:50:42;17.67;;;7.88;;
47960;SDS011;33721;48.852;9.936;2023-07-24T09:56:13;20.02;;;7.75;;
47960;SDS011;33721;48.852;9.936;2023-07-24T09:58:41;16.40;;;7.60;;
47960;SDS011;33721;48.852;9.936;2023-07-24T10:01:09;14.05;;;7.22;;
47960;SDS011;33721;48.852;9.936;2023-07-24T10:03:39;13.68;;;6.68;;
47960;SDS011;33721;48.852;9.936;2023-07-24T10:06:12;15.95;;;6.50;;
47960;SDS011;33721;48.852;9.936;2023-07-24T10:08:42;13.38;;;7.40;;
47960;SDS011;33721;48.852;9.936;2023-07-24T10:11:09;13.60;;;7.03;;
47960;SDS011;33721;48.852;9.936;2023-07-24T10:13:37;14.52;;;7.03;;
47960;SDS011;33721;48.852;9.936;2023-07-24T10:16:03;14.93;;;7.22;;
47960;SDS011;33721;48.852;9.936;2023-07-24T10:18:32;15.38;;;7.22;;
47960;SDS011;33721;48.852;9.936;2023-07-24T10:21:09;14.30;;;6.65;;
47960;SDS011;33721;48.852;9.936;2023-07-24T10:23:35;14.68;;;6.90;;
47960;SDS011;33721;48.852;9.936;2023-07-24T10:26:02;12.90;;;7.13;;
47960;SDS011;33721;48.852;9.936;2023-07-24T10:28:32;14.50;;;7.10;;
47960;SDS011;33721;48.852;9.936;2023-07-24T10:31:26;15.77;;;7.22;;
47960;SDS011;33721;48.852;9.936;2023-07-24T10:33:55;13.88;;;6.82;;
47960;SDS011;33721;48.852;9.936;2023-07-24T10:36:32;15.20;;;7.78;;
47960;SDS011;33721;48.852;9.936;2023-07-24T10:39:02;14.88;;;7.65;;
47960;SDS011;33721;48.852;9.936;2023-07-24T10:41:38;17.85;;;7.70;;
47960;SDS011;33721;48.852;9.936;2023-07-24T10:44:05;14.27;;;7.60;;
47960;SDS011;33721;48.852;9.936;2023-07-24T10:46:37;15.55;;;7.53;;
47960;SDS011;33721;48.852;9.936;2023-07-24T10:49:04;15.68;;;7.68;;
47960;SDS011;33721;48.852;9.936;2023-07-24T10:51:30;13.65;;;7.57;;
47960;SDS011;33721;48.852;9.936;2023-07-24T10:54:02;15.30;;;7.65;;
47960;SDS011;33721;48.852;9.936;2023-07-24T10:56:29;13.63;;;7.07;;
47960;SDS011;33721;48.852;9.936;2023-07-24T10:58:55;15.25;;;7.93;;
47960;SDS011;33721;48.852;9.936;2023-07-24T11:01:21;17.02;;;7.57;;
47960;SDS011;33721;48.852;9.936;2023-07-24T11:03:48;19.63;;;8.48;;
47960;SDS011;33721;48.852;9.936;2023-07-24T11:06:16;20.75;;;8.98;;
47960;SDS011;33721;48.852;9.936;2023-07-24T11:08:50;16.30;;;9.10;;
47960;SDS011;33721;48.852;9.936;2023-07-24T11:13:59;16.27;;;7.65;;
47960;SDS011;33721;48.852;9.936;2023-07-24T11:16:26;16.00;;;8.20;;
47960;SDS011;33721;48.852;9.936;2023-07-24T11:18:55;17.30;;;8.13;;
47960;SDS011;33721;48.852;9.936;2023-07-24T11:21:22;16.15;;;7.88;;
47960;SDS011;33721;48.852;9.936;2023-07-24T11:23:52;14.88;;;8.15;;
47960;SDS011;33721;48.852;9.936;2023-07-24T11:28:46;24.05;;;7.38;;
47960;SDS011;33721;48.852;9.936;2023-07-24T11:31:11;16.33;;;7.82;;
47960;SDS011;33721;48.852;9.936;2023-07-24T11:33:37;14.57;;;7.03;;
47960;SDS011;33721;48.852;9.936;2023-07-24T11:36:04;13.98;;;7.13;;
47960;SDS011;33721;48.852;9.936;2023-07-24T11:38:30;17.17;;;7.00;;
47960;SDS011;33721;48.852;9.936;2023-07-24T11:40:56;14.60;;;7.75;;
47960;SDS011;33721;48.852;9.936;2023-07-24T11:43:22;16.73;;;7.75;;
47960;SDS011;33721;48.852;9.936;2023-07-24T11:45:52;14.35;;;7.55;;
47960;SDS011;33721;48.852;9.936;2023-07-24T11:48:19;16.30;;;7.50;;
47960;SDS011;33721;48.852;9.936;2023-07-24T11:50:49;14.32;;;7.53;;
47960;SDS011;33721;48.852;9.936;2023-07-24T11:53:23;17.50;;;7.97;;
47960;SDS011;33721;48.852;9.936;2023-07-24T11:55:53;16.23;;;8.20;;
47960;SDS011;33721;48.852;9.936;2023-07-24T11:58:21;19.70;;;9.15;;
47960;SDS011;33721;48.852;9.936;2023-07-24T12:00:50;20.65;;;9.55;;
47960;SDS011;33721;48.852;9.936;2023-07-24T12:03:20;19.15;;;9.68;;
47960;SDS011;33721;48.852;9.936;2023-07-24T12:05:53;18.35;;;9.23;;
47960;SDS011;33721;48.852;9.936;2023-07-24T12:08:31;21.42;;;9.80;;
47960;SDS011;33721;48.852;9.936;2023-07-24T12:10:58;19.93;;;9.73;;
47960;SDS011;33721;48.852;9.936;2023-07-24T12:13:24;21.50;;;10.20;;
47960;SDS011;33721;48.852;9.936;2023-07-24T12:15:50;21.35;;;9.38;;
47960;SDS011;33721;48.852;9.936;2023-07-24T12:18:16;19.25;;;9.50;;
47960;SDS011;33721;48.852;9.936;2023-07-24T12:20:42;17.35;;;9.55;;
47960;SDS011;33721;48.852;9.936;2023-07-24T12:23:08;17.98;;;9.75;;
47960;SDS011;33721;48.852;9.936;2023-07-24T12:25:33;19.83;;;9.73;;
47960;SDS011;33721;48.852;9.936;2023-07-24T12:27:59;16.05;;;8.60;;
47960;SDS011;33721;48.852;9.936;2023-07-24T12:30:25;16.98;;;9.23;;
47960;SDS011;33721;48.852;9.936;2023-07-24T12:32:50;21.98;;;9.43;;
47960;SDS011;33721;48.852;9.936;2023-07-24T12:35:16;19.35;;;8.85;;
47960;SDS011;33721;48.852;9.936;2023-07-24T12:37:45;18.75;;;8.70;;
47960;SDS011;33721;48.852;9.936;2023-07-24T12:40:11;16.02;;;7.95;;
47960;SDS011;33721;48.852;9.936;2023-07-24T12:42:37;20.35;;;8.50;;
47960;SDS011;33721;48.852;9.936;2023-07-24T12:45:03;15.85;;;8.00;;
47960;SDS011;33721;48.852;9.936;2023-07-24T12:47:30;14.68;;;7.50;;
47960;SDS011;33721;48.852;9.936;2023-07-24T12:49:56;13.88;;;7.75;;
47960;SDS011;33721;48.852;9.936;2023-07-24T12:52:22;15.90;;;7.22;;
47960;SDS011;33721;48.852;9.936;2023-07-24T12:54:49;15.38;;;7.40;;
47960;SDS011;33721;48.852;9.936;2023-07-24T12:57:15;13.20;;;7.28;;
47960;SDS011;33721;48.852;9.936;2023-07-24T12:59:40;14.02;;;6.65;;
47960;SDS011;33721;48.852;9.936;2023-07-24T13:02:06;15.52;;;7.35;;
47960;SDS011;33721;48.852;9.936;2023-07-24T13:04:32;13.05;;;7.78;;
47960;SDS011;33721;48.852;9.936;2023-07-24T13:06:57;16.40;;;7.40;;
47960;SDS011;33721;48.852;9.936;2023-07-24T13:09:25;14.10;;;7.28;;
47960;SDS011;33721;48.852;9.936;2023-07-24T13:11:51;11.45;;;6.68;;
47960;SDS011;33721;48.852;9.936;2023-07-24T13:14:19;10.68;;;6.22;;
47960;SDS011;33721;48.852;9.936;2023-07-24T13:16:45;12.98;;;6.30;;
47960;SDS011;33721;48.852;9.936;2023-07-24T13:19:11;10.35;;;6.40;;
47960;SDS011;33721;48.852;9.936;2023-07-24T13:21:36;16.23;;;6.05;;
47960;SDS011;33721;48.852;9.936;2023-07-24T13:24:02;10.20;;;5.68;;
47960;SDS011;33721;48.852;9.936;2023-07-24T13:26:28;10.40;;;5.50;;
47960;SDS011;33721;48.852;9.936;2023-07-24T13:28:53;11.32;;;5.63;;
47960;SDS011;33721;48.852;9.936;2023-07-24T13:31:19;9.82;;;4.97;;
47960;SDS011;33721;48.852;9.936;2023-07-24T13:33:47;9.00;;;4.75;;
47960;SDS011;33721;48.852;9.936;2023-07-24T13:36:13;10.82;;;5.65;;
47960;SDS011;33721;48.852;9.936;2023-07-24T13:38:39;9.30;;;5.05;;
47960;SDS011;33721;48.852;9.936;2023-07-24T13:41:06;8.98;;;5.28;;
47960;SDS011;33721;48.852;9.936;2023-07-24T13:43:32;10.68;;;5.68;;
47960;SDS011;33721;48.852;9.936;2023-07-24T13:45:58;12.13;;;5.85;;
47960;SDS011;33721;48.852;9.936;2023-07-24T13:48:24;12.52;;;5.13;;
47960;SDS011;33721;48.852;9.936;2023-07-24T13:50:51;9.00;;;5.28;;
47960;SDS011;33721;48.852;9.936;2023-07-24T13:53:17;10.48;;;5.65;;
47960;SDS011;33721;48.852;9.936;2023-07-24T13:55:42;11.85;;;5.88;;
47960;SDS011;33721;48.852;9.936;2023-07-24T13:58:08;11.75;;;5.50;;
47960;SDS011;33721;48.852;9.936;2023-07-24T14:00:34;9.85;;;5.43;;
47960;SDS011;33721;48.852;9.936;2023-07-24T14:02:59;9.95;;;5.20;;
47960;SDS011;33721;48.852;9.936;2023-07-24T14:05:25;11.18;;;5.10;;
47960;SDS011;33721;48.852;9.936;2023-07-24T14:07:51;9.32;;;5.18;;
47960;SDS011;33721;48.852;9.936;2023-07-24T14:10:16;10.52;;;4.75;;
47960;SDS011;33721;48.852;9.936;2023-07-24T14:12:42;8.88;;;4.57;;
47960;SDS011;33721;48.852;9.936;2023-07-24T14:15:08;8.73;;;5.00;;
47960;SDS011;33721;48.852;9.936;2023-07-24T14:17:34;8.52;;;4.78;;
47960;SDS011;33721;48.852;9.936;2023-07-24T14:20:02;8.80;;;4.65;;
47960;SDS011;33721;48.852;9.936;2023-07-24T14:22:28;9.07;;;4.53;;
47960;SDS011;33721;48.852;9.936;2023-07-24T14:24:54;9.35;;;4.68;;
47960;SDS011;33721;48.852;9.936;2023-07-24T14:27:20;9.38;;;4.95;;
47960;SDS011;33721;48.852;9.936;2023-07-24T14:29:45;11.80;;;5.50;;
47960;SDS011;33721;48.852;9.936;2023-07-24T14:32:11;9.85;;;4.90;;
47960;SDS011;33721;48.852;9.936;2023-07-24T14:34:37;9.32;;;5.15;;
47960;SDS011;33721;48.852;9.936;2023-07-24T14:37:03;9.68;;;4.65;;
47960;SDS011;33721;48.852;9.936;2023-07-24T14:39:29;9.68;;;4.63;;
47960;SDS011;33721;48.852;9.936;2023-07-24T14:41:54;9.55;;;5.05;;
47960;SDS011;33721;48.852;9.936;2023-07-24T14:44:20;9.93;;;4.82;;